sensor_id;sensor_type;location;lat;lon;timestamp;pressure;altitude;pressure_sealevel;temperature;humidity
20156;BME280;10238;49.556;10.956;2023-04-25T00:01:39;97572.34;;;8.41;100.00
20156;BME280;10238;49.556;10.956;2023-04-25T00:04:27;97571.84;;;8.45;100.00
20156;BME280;10238;49.556;10.956;2023-04-25T00:07:16;97564.06;;;8.44;100.00
20156;BME280;10238;49.556;10.956;2023-04-25T00:10:05;97559.63;;;8.44;100.00
20156;BME280;10238;49.556;10.956;2023-04-25T00:12:54;97561.44;;;8.44;100.00
20156;BME280;10238;49.556;10.956;2023-04-25T00:15:44;97568.41;;;8.45;100.00
20156;BME280;10238;49.556;10.956;2023-04-25T00:18:34;97555.00;;;8.46;100.00
20156;BME280;10238;49.556;10.956;2023-04-25T00:21:22;97555.16;;;8.45;100.00
20156;BME280;10238;49.556;10.956;2023-04-25T00:24:10;97559.47;;;8.46;100.00
20156;BME280;10238;49.556;10.956;2023-04-25T00:26:58;97560.78;;;8.50;100.00
20156;BME280;10238;49.556;10.956;2023-04-25T00:29:47;97562.09;;;8.46;100.00
20156;BME280;10238;49.556;10.956;2023-04-25T00:32:36;97555.16;;;8.45;100.00
20156;BME280;10238;49.556;10.956;2023-04-25T00:35:24;97560.47;;;8.45;100.00
20156;BME280;10238;49.556;10.956;2023-04-25T00:38:11;97556.81;;;8.46;100.00
20156;BME280;10238;49.556;10.956;2023-04-25T00:40:59;97557.81;;;8.45;100.00
20156;BME280;10238;49.556;10.956;2023-04-25T00:43:48;97553.31;;;8.45;100.00
20156;BME280;10238;49.556;10.956;2023-04-25T00:46:39;97554.31;;;8.44;100.00
20156;BME280;10238;49.556;10.956;2023-04-25T00:49:27;97554.47;;;8.43;100.00
20156;BME280;10238;49.556;10.956;2023-04-25T00:52:14;97561.75;;;8.41;100.00
20156;BME280;10238;49.556;10.956;2023-04-25T00:55:03;97559.25;;;8.39;100.00
20156;BME280;10238;49.556;10.956;2023-04-25T00:57:51;97541.19;;;8.35;100.00
20156;BME280;10238;49.556;10.956;2023-04-25T01:00:40;97543.19;;;8.33;100.00
20156;BME280;10238;49.556;10.956;2023-04-25T01:03:32;97555.44;;;8.34;100.00
20156;BME280;10238;49.556;10.956;2023-04-25T01:06:22;97544.69;;;8.35;100.00
20156;BME280;10238;49.556;10.956;2023-04-25T01:09:10;97551.78;;;8.35;100.00
20156;BME280;10238;49.556;10.956;2023-04-25T01:11:58;97552.13;;;8.32;100.00
20156;BME280;10238;49.556;10.956;2023-04-25T01:14:47;97549.47;;;8.32;100.00
20156;BME280;10238;49.556;10.956;2023-04-25T01:17:38;97541.53;;;8.32;100.00
20156;BME280;10238;49.556;10.956;2023-04-25T01:20:33;97545.16;;;8.31;100.00
20156;BME280;10238;49.556;10.956;2023-04-25T01:23:22;97549.66;;;8.30;100.00
20156;BME280;10238;49.556;10.956;2023-04-25T01:26:11;97548.81;;;8.30;100.00
20156;BME280;10238;49.556;10.956;2023-04-25T01:29:00;97545.00;;;8.32;100.00
20156;BME280;10238;49.556;10.956;2023-04-25T01:31:48;97545.16;;;8.31;100.00
20156;BME280;10238;49.556;10.956;2023-04-25T01:34:36;97545.16;;;8.31;100.00
20156;BME280;10238;49.556;10.956;2023-04-25T01:37:24;97540.88;;;8.30;100.00
20156;BME280;10238;49.556;10.956;2023-04-25T01:40:13;97536.56;;;8.29;100.00
20156;BME280;10238;49.556;10.956;2023-04-25T01:43:01;97535.91;;;8.27;100.00
20156;BME280;10238;49.556;10.956;2023-04-25T01:45:50;97531.59;;;8.26;100.00
20156;BME280;10238;49.556;10.956;2023-04-25T01:48:39;97545.00;;;8.24;100.00
20156;BME280;10238;49.556;10.956;2023-04-25T01:51:26;97540.81;;;8.22;100.00
20156;BME280;10238;49.556;10.956;2023-04-25T01:54:14;97537.50;;;8.20;100.00
20156;BME280;10238;49.556;10.956;2023-04-25T01:57:03;97544.44;;;8.21;100.00
20156;BME280;10238;49.556;10.956;2023-04-25T01:59:51;97546.41;;;8.19;100.00
20156;BME280;10238;49.556;10.956;2023-04-25T02:02:41;97546.72;;;8.16;100.00
20156;BME280;10238;49.556;10.956;2023-04-25T02:05:34;97547.56;;;8.16;100.00
20156;BME280;10238;49.556;10.956;2023-04-25T02:08:22;97542.28;;;8.16;100.00
20156;BME280;10238;49.556;10.956;2023-04-25T02:11:12;97535.66;;;8.12;100.00
20156;BME280;10238;49.556;10.956;2023-04-25T02:14:01;97545.38;;;8.12;100.00
20156;BME280;10238;49.556;10.956;2023-04-25T02:16:49;97549.34;;;8.08;100.00
20156;BME280;10238;49.556;10.956;2023-04-25T02:19:38;97549.81;;;8.03;100.00
20156;BME280;10238;49.556;10.956;2023-04-25T02:22:25;97545.84;;;7.99;100.00
20156;BME280;10238;49.556;10.956;2023-04-25T02:25:16;97539.72;;;7.99;100.00
20156;BME280;10238;49.556;10.956;2023-04-25T02:28:04;97544.50;;;7.95;100.00
20156;BME280;10238;49.556;10.956;2023-04-25T02:30:53;97542.34;;;7.91;100.00
20156;BME280;10238;49.556;10.956;2023-04-25T02:33:40;97543.31;;;7.90;100.00
20156;BME280;10238;49.556;10.956;2023-04-25T02:36:28;97544.94;;;7.83;100.00
20156;BME280;10238;49.556;10.956;2023-04-25T02:39:18;97540.94;;;7.79;100.00
20156;BME280;10238;49.556;10.956;2023-04-25T02:42:08;97542.25;;;7.75;100.00
20156;BME280;10238;49.556;10.956;2023-04-25T02:44:58;97544.53;;;7.70;100.00
20156;BME280;10238;49.556;10.956;2023-04-25T02:47:47;97537.59;;;7.69;100.00
20156;BME280;10238;49.556;10.956;2023-04-25T02:50:35;97542.66;;;7.62;100.00
20156;BME280;10238;49.556;10.956;2023-04-25T02:53:22;97536.53;;;7.62;100.00
20156;BME280;10238;49.556;10.956;2023-04-25T02:56:10;97538.16;;;7.55;100.00
20156;BME280;10238;49.556;10.956;2023-04-25T02:58:57;97537.19;;;7.56;100.00
20156;BME280;10238;49.556;10.956;2023-04-25T03:01:47;97530.53;;;7.52;100.00
20156;BME280;10238;49.556;10.956;2023-04-25T03:04:37;97528.19;;;7.49;100.00
20156;BME280;10238;49.556;10.956;2023-04-25T03:07:25;97531.13;;;7.46;100.00
20156;BME280;10238;49.556;10.956;2023-04-25T03:10:12;97524.34;;;7.43;100.00
20156;BME280;10238;49.556;10.956;2023-04-25T03:13:00;97525.50;;;7.41;100.00
20156;BME280;10238;49.556;10.956;2023-04-25T03:15:48;97524.16;;;7.37;100.00
20156;BME280;10238;49.556;10.956;2023-04-25T03:18:35;97524.41;;;7.26;100.00
20156;BME280;10238;49.556;10.956;2023-04-25T03:21:24;97527.34;;;7.23;100.00
20156;BME280;10238;49.556;10.956;2023-04-25T03:24:12;97532.28;;;7.18;100.00
20156;BME280;10238;49.556;10.956;2023-04-25T03:26:59;97521.41;;;7.21;100.00
20156;BME280;10238;49.556;10.956;2023-04-25T03:29:47;97510.84;;;7.21;100.00
20156;BME280;10238;49.556;10.956;2023-04-25T03:32:35;97514.81;;;7.25;100.00
20156;BME280;10238;49.556;10.956;2023-04-25T03:35:23;97514.13;;;7.23;100.00
20156;BME280;10238;49.556;10.956;2023-04-25T03:38:13;97518.38;;;7.16;100.00
20156;BME280;10238;49.556;10.956;2023-04-25T03:41:03;97520.03;;;7.17;100.00
20156;BME280;10238;49.556;10.956;2023-04-25T03:43:51;97523.13;;;7.12;100.00
20156;BME280;10238;49.556;10.956;2023-04-25T03:46:39;97529.56;;;7.10;100.00
20156;BME280;10238;49.556;10.956;2023-04-25T03:49:26;97527.75;;;7.10;100.00
20156;BME280;10238;49.556;10.956;2023-04-25T03:52:14;97523.97;;;7.13;100.00
20156;BME280;10238;49.556;10.956;2023-04-25T03:55:04;97528.97;;;7.16;100.00
20156;BME280;10238;49.556;10.956;2023-04-25T03:57:52;97526.69;;;7.21;100.00
20156;BME280;10238;49.556;10.956;2023-04-25T04:00:39;97520.94;;;7.25;100.00
20156;BME280;10238;49.556;10.956;2023-04-25T04:03:27;97522.78;;;7.33;100.00
20156;BME280;10238;49.556;10.956;2023-04-25T04:06:15;97517.34;;;7.34;100.00
20156;BME280;10238;49.556;10.956;2023-04-25T04:09:03;97526.81;;;7.37;100.00
20156;BME280;10238;49.556;10.956;2023-04-25T04:11:52;97525.81;;;7.38;100.00
20156;BME280;10238;49.556;10.956;2023-04-25T04:14:40;97526.19;;;7.43;100.00
20156;BME280;10238;49.556;10.956;2023-04-25T04:17:28;97524.19;;;7.45;100.00
20156;BME280;10238;49.556;10.956;2023-04-25T04:20:16;97526.69;;;7.46;100.00
20156;BME280;10238;49.556;10.956;2023-04-25T04:23:04;97525.38;;;7.50;100.00
20156;BME280;10238;49.556;10.956;2023-04-25T04:25:51;97529.88;;;7.50;100.00
20156;BME280;10238;49.556;10.956;2023-04-25T04:28:41;97523.59;;;7.51;100.00
20156;BME280;10238;49.556;10.956;2023-04-25T04:31:30;97524.91;;;7.55;100.00
20156;BME280;10238;49.556;10.956;2023-04-25T04:34:19;97527.41;;;7.56;100.00
20156;BME280;10238;49.556;10.956;2023-04-25T04:37:07;97526.28;;;7.59;100.00
20156;BME280;10238;49.556;10.956;2023-04-25T04:39:56;97522.66;;;7.60;100.00
20156;BME280;10238;49.556;10.956;2023-04-25T04:42:45;97519.00;;;7.61;100.00
20156;BME280;10238;49.556;10.956;2023-04-25T04:45:34;97532.75;;;7.64;100.00
20156;BME280;10238;49.556;10.956;2023-04-25T04:48:23;97525.63;;;7.65;100.00
20156;BME280;10238;49.556;10.956;2023-04-25T04:51:11;97534.94;;;7.69;100.00
20156;BME280;10238;49.556;10.956;2023-04-25T04:53:59;97534.94;;;7.69;100.00
20156;BME280;10238;49.556;10.956;2023-04-25T04:56:48;97533.09;;;7.69;100.00
20156;BME280;10238;49.556;10.956;2023-04-25T04:59:36;97536.44;;;7.71;100.00
20156;BME280;10238;49.556;10.956;2023-04-25T05:02:25;97544.22;;;7.73;100.00
20156;BME280;10238;49.556;10.956;2023-04-25T05:05:14;97540.56;;;7.74;100.00
20156;BME280;10238;49.556;10.956;2023-04-25T05:08:01;97543.91;;;7.76;100.00
20156;BME280;10238;49.556;10.956;2023-04-25T05:10:49;97545.94;;;7.82;100.00
20156;BME280;10238;49.556;10.956;2023-04-25T05:13:39;97546.88;;;7.81;100.00
20156;BME280;10238;49.556;10.956;2023-04-25T05:16:28;97551.88;;;7.84;100.00
20156;BME280;10238;49.556;10.956;2023-04-25T05:19:17;97537.97;;;7.82;100.00
20156;BME280;10238;49.556;10.956;2023-04-25T05:22:05;97539.63;;;7.83;100.00
20156;BME280;10238;49.556;10.956;2023-04-25T05:24:52;97544.78;;;7.84;100.00
20156;BME280;10238;49.556;10.956;2023-04-25T05:27:41;97553.53;;;7.85;100.00
20156;BME280;10238;49.556;10.956;2023-04-25T05:30:29;97550.75;;;7.86;100.00
20156;BME280;10238;49.556;10.956;2023-04-25T05:33:17;97563.81;;;7.88;100.00
20156;BME280;10238;49.556;10.956;2023-04-25T05:36:07;97561.97;;;7.88;100.00
20156;BME280;10238;49.556;10.956;2023-04-25T05:38:55;97558.22;;;7.91;100.00
20156;BME280;10238;49.556;10.956;2023-04-25T05:41:43;97557.38;;;7.90;100.00
20156;BME280;10238;49.556;10.956;2023-04-25T05:44:31;97566.50;;;7.96;100.00
20156;BME280;10238;49.556;10.956;2023-04-25T05:47:19;97569.81;;;7.98;100.00
20156;BME280;10238;49.556;10.956;2023-04-25T05:50:08;97574.44;;;7.96;100.00
20156;BME280;10238;49.556;10.956;2023-04-25T05:52:57;97568.13;;;7.97;100.00
20156;BME280;10238;49.556;10.956;2023-04-25T05:55:46;97574.97;;;7.99;100.00
20156;BME280;10238;49.556;10.956;2023-04-25T05:58:33;97581.91;;;8.00;100.00
20156;BME280;10238;49.556;10.956;2023-04-25T06:01:22;97574.78;;;8.01;100.00
20156;BME280;10238;49.556;10.956;2023-04-25T06:04:10;97577.44;;;8.01;100.00
20156;BME280;10238;49.556;10.956;2023-04-25T06:06:58;97583.84;;;7.98;100.00
20156;BME280;10238;49.556;10.956;2023-04-25T06:09:47;97578.41;;;8.00;100.00
20156;BME280;10238;49.556;10.956;2023-04-25T06:12:35;97577.13;;;8.04;100.00
20156;BME280;10238;49.556;10.956;2023-04-25T06:15:25;97588.53;;;8.04;100.00
20156;BME280;10238;49.556;10.956;2023-04-25T06:18:14;97586.72;;;8.05;100.00
20156;BME280;10238;49.556;10.956;2023-04-25T06:21:02;97586.41;;;8.08;100.00
20156;BME280;10238;49.556;10.956;2023-04-25T06:23:50;97587.91;;;8.10;100.00
20156;BME280;10238;49.556;10.956;2023-04-25T06:26:39;97590.53;;;8.10;100.00
20156;BME280;10238;49.556;10.956;2023-04-25T06:29:27;97595.03;;;8.10;100.00
20156;BME280;10238;49.556;10.956;2023-04-25T06:32:14;97596.38;;;8.14;100.00
20156;BME280;10238;49.556;10.956;2023-04-25T06:35:05;97589.91;;;8.16;100.00
20156;BME280;10238;49.556;10.956;2023-04-25T06:37:53;97583.88;;;8.24;100.00
20156;BME280;10238;49.556;10.956;2023-04-25T06:40:40;97589.53;;;8.29;100.00
20156;BME280;10238;49.556;10.956;2023-04-25T06:43:29;97591.66;;;8.33;100.00
20156;BME280;10238;49.556;10.956;2023-04-25T06:46:19;97591.88;;;8.40;100.00
20156;BME280;10238;49.556;10.956;2023-04-25T06:49:07;97598.50;;;8.44;100.00
20156;BME280;10238;49.556;10.956;2023-04-25T06:51:54;97606.13;;;8.47;100.00
20156;BME280;10238;49.556;10.956;2023-04-25T06:54:42;97603.47;;;8.47;100.00
20156;BME280;10238;49.556;10.956;2023-04-25T06:57:29;97606.28;;;8.45;100.00
20156;BME280;10238;49.556;10.956;2023-04-25T07:00:21;97617.03;;;8.44;100.00
20156;BME280;10238;49.556;10.956;2023-04-25T07:03:09;97613.09;;;8.48;100.00
20156;BME280;10238;49.556;10.956;2023-04-25T07:05:57;97624.66;;;8.47;100.00
20156;BME280;10238;49.556;10.956;2023-04-25T07:08:44;97625.50;;;8.47;100.00
20156;BME280;10238;49.556;10.956;2023-04-25T07:11:32;97625.81;;;8.44;100.00
20156;BME280;10238;49.556;10.956;2023-04-25T07:14:20;97627.28;;;8.39;100.00
20156;BME280;10238;49.556;10.956;2023-04-25T07:17:10;97622.31;;;8.36;100.00
20156;BME280;10238;49.556;10.956;2023-04-25T07:19:58;97621.47;;;8.35;100.00
20156;BME280;10238;49.556;10.956;2023-04-25T07:22:46;97616.88;;;8.37;100.00
20156;BME280;10238;49.556;10.956;2023-04-25T07:25:33;97618.66;;;8.37;100.00
20156;BME280;10238;49.556;10.956;2023-04-25T07:28:21;97624.50;;;8.40;100.00
20156;BME280;10238;49.556;10.956;2023-04-25T07:31:09;97619.34;;;8.39;100.00
20156;BME280;10238;49.556;10.956;2023-04-25T07:33:58;97611.09;;;8.42;100.00
20156;BME280;10238;49.556;10.956;2023-04-25T07:36:47;97619.69;;;8.44;100.00
20156;BME280;10238;49.556;10.956;2023-04-25T07:39:35;97619.38;;;8.47;100.00
20156;BME280;10238;49.556;10.956;2023-04-25T07:42:23;97621.88;;;8.48;100.00
20156;BME280;10238;49.556;10.956;2023-04-25T07:45:13;97626.00;;;8.51;100.00
20156;BME280;10238;49.556;10.956;2023-04-25T07:48:01;97633.78;;;8.52;100.00
20156;BME280;10238;49.556;10.956;2023-04-25T07:50:51;97630.66;;;8.57;100.00
20156;BME280;10238;49.556;10.956;2023-04-25T07:53:39;97630.88;;;8.63;100.00
20156;BME280;10238;49.556;10.956;2023-04-25T07:56:27;97633.53;;;8.71;100.00
20156;BME280;10238;49.556;10.956;2023-04-25T07:59:24;97630.91;;;8.79;100.00
20156;BME280;10238;49.556;10.956;2023-04-25T08:02:15;97631.44;;;8.91;100.00
20156;BME280;10238;49.556;10.956;2023-04-25T08:05:03;97629.16;;;9.04;100.00
20156;BME280;10238;49.556;10.956;2023-04-25T08:07:53;97640.09;;;9.17;100.00
20156;BME280;10238;49.556;10.956;2023-04-25T08:10:44;97642.94;;;9.32;100.00
20156;BME280;10238;49.556;10.956;2023-04-25T08:13:32;97641.31;;;9.47;100.00
20156;BME280;10238;49.556;10.956;2023-04-25T08:16:19;97637.50;;;9.57;100.00
20156;BME280;10238;49.556;10.956;2023-04-25T08:19:07;97634.16;;;9.71;100.00
20156;BME280;10238;49.556;10.956;2023-04-25T08:21:55;97646.28;;;9.82;100.00
20156;BME280;10238;49.556;10.956;2023-04-25T08:24:44;97651.22;;;9.93;100.00
20156;BME280;10238;49.556;10.956;2023-04-25T08:27:32;97657.38;;;10.01;100.00
20156;BME280;10238;49.556;10.956;2023-04-25T08:30:19;97656.72;;;10.15;100.00
20156;BME280;10238;49.556;10.956;2023-04-25T08:33:08;97649.72;;;10.30;100.00
20156;BME280;10238;49.556;10.956;2023-04-25T08:35:58;97647.69;;;10.40;100.00
20156;BME280;10238;49.556;10.956;2023-04-25T08:38:45;97649.16;;;10.51;100.00
20156;BME280;10238;49.556;10.956;2023-04-25T08:41:36;97662.22;;;10.60;100.00
20156;BME280;10238;49.556;10.956;2023-04-25T08:44:25;97664.38;;;10.65;100.00
20156;BME280;10238;49.556;10.956;2023-04-25T08:47:13;97668.84;;;10.72;100.00
20156;BME280;10238;49.556;10.956;2023-04-25T08:50:06;97664.81;;;10.76;100.00
20156;BME280;10238;49.556;10.956;2023-04-25T08:52:54;97668.16;;;10.78;100.00
20156;BME280;10238;49.556;10.956;2023-04-25T08:55:46;97664.66;;;10.78;100.00
20156;BME280;10238;49.556;10.956;2023-04-25T08:58:36;97667.81;;;10.81;100.00
20156;BME280;10238;49.556;10.956;2023-04-25T09:01:25;97660.63;;;10.90;100.00
20156;BME280;10238;49.556;10.956;2023-04-25T09:04:15;97660.38;;;10.99;100.00
20156;BME280;10238;49.556;10.956;2023-04-25T09:07:04;97657.84;;;11.14;100.00
20156;BME280;10238;49.556;10.956;2023-04-25T09:09:51;97658.84;;;11.36;100.00
20156;BME280;10238;49.556;10.956;2023-04-25T09:12:39;97661.84;;;11.63;100.00
20156;BME280;10238;49.556;10.956;2023-04-25T09:15:28;97660.59;;;12.11;100.00
20156;BME280;10238;49.556;10.956;2023-04-25T09:18:23;97658.91;;;12.47;100.00
20156;BME280;10238;49.556;10.956;2023-04-25T09:21:15;97653.34;;;12.92;100.00
20156;BME280;10238;49.556;10.956;2023-04-25T09:24:03;97652.72;;;13.40;100.00
20156;BME280;10238;49.556;10.956;2023-04-25T09:26:51;97650.53;;;13.92;100.00
20156;BME280;10238;49.556;10.956;2023-04-25T09:29:40;97652.69;;;14.24;100.00
20156;BME280;10238;49.556;10.956;2023-04-25T09:32:30;97653.34;;;14.60;100.00
20156;BME280;10238;49.556;10.956;2023-04-25T09:35:24;97636.75;;;15.25;100.00
20156;BME280;10238;49.556;10.956;2023-04-25T09:38:14;97638.47;;;15.39;100.00
20156;BME280;10238;49.556;10.956;2023-04-25T09:41:05;97632.34;;;15.65;100.00
20156;BME280;10238;49.556;10.956;2023-04-25T09:44:07;97628.44;;;16.00;98.64
20156;BME280;10238;49.556;10.956;2023-04-25T09:47:37;97634.03;;;16.18;88.74
20156;BME280;10238;49.556;10.956;2023-04-25T09:50:25;97629.47;;;16.12;83.49
20156;BME280;10238;49.556;10.956;2023-04-25T09:53:13;97634.03;;;16.05;80.04
20156;BME280;10238;49.556;10.956;2023-04-25T09:56:05;97630.31;;;16.06;79.05
20156;BME280;10238;49.556;10.956;2023-04-25T09:58:54;97635.66;;;16.06;77.41
20156;BME280;10238;49.556;10.956;2023-04-25T10:01:43;97639.38;;;16.05;75.18
20156;BME280;10238;49.556;10.956;2023-04-25T10:04:35;97640.81;;;16.20;73.63
20156;BME280;10238;49.556;10.956;2023-04-25T10:07:27;97641.84;;;16.39;73.06
20156;BME280;10238;49.556;10.956;2023-04-25T10:10:16;97629.41;;;16.77;72.03
20156;BME280;10238;49.556;10.956;2023-04-25T10:13:06;97626.00;;;17.01;71.85
20156;BME280;10238;49.556;10.956;2023-04-25T10:15:55;97631.53;;;17.19;70.87
20156;BME280;10238;49.556;10.956;2023-04-25T10:18:44;97635.97;;;17.45;70.98
20156;BME280;10238;49.556;10.956;2023-04-25T10:21:34;97634.84;;;17.59;69.70
20156;BME280;10238;49.556;10.956;2023-04-25T10:24:25;97635.94;;;17.82;67.40
20156;BME280;10238;49.556;10.956;2023-04-25T10:27:14;97635.78;;;17.71;65.89
20156;BME280;10238;49.556;10.956;2023-04-25T10:30:02;97629.94;;;17.80;64.74
20156;BME280;10238;49.556;10.956;2023-04-25T10:32:55;97637.91;;;17.93;63.71
20156;BME280;10238;49.556;10.956;2023-04-25T10:35:45;97634.00;;;18.20;63.25
20156;BME280;10238;49.556;10.956;2023-04-25T10:38:36;97633.03;;;18.39;62.95
20156;BME280;10238;49.556;10.956;2023-04-25T10:41:24;97628.41;;;18.46;63.55
20156;BME280;10238;49.556;10.956;2023-04-25T10:44:12;97631.88;;;18.71;62.13
20156;BME280;10238;49.556;10.956;2023-04-25T10:47:02;97636.78;;;18.56;61.38
20156;BME280;10238;49.556;10.956;2023-04-25T10:49:52;97637.13;;;18.42;61.06
20156;BME280;10238;49.556;10.956;2023-04-25T10:52:39;97634.88;;;18.39;60.55
20156;BME280;10238;49.556;10.956;2023-04-25T10:55:51;97637.16;;;18.35;59.12
20156;BME280;10238;49.556;10.956;2023-04-25T10:58:43;97642.22;;;18.25;59.38
20156;BME280;10238;49.556;10.956;2023-04-25T11:01:36;97646.53;;;18.02;59.09
20156;BME280;10238;49.556;10.956;2023-04-25T11:04:27;97648.13;;;18.09;60.05
20156;BME280;10238;49.556;10.956;2023-04-25T11:07:26;97651.03;;;18.08;60.71
20156;BME280;10238;49.556;10.956;2023-04-25T11:10:16;97648.69;;;17.93;60.41
20156;BME280;10238;49.556;10.956;2023-04-25T11:13:05;97648.75;;;17.87;61.85
20156;BME280;10238;49.556;10.956;2023-04-25T11:15:53;97651.56;;;17.98;62.16
20156;BME280;10238;49.556;10.956;2023-04-25T11:18:58;97655.22;;;18.04;63.81
20156;BME280;10238;49.556;10.956;2023-04-25T11:21:46;97654.50;;;17.90;63.57
20156;BME280;10238;49.556;10.956;2023-04-25T11:24:35;97660.91;;;17.89;62.84
20156;BME280;10238;49.556;10.956;2023-04-25T11:27:23;97663.00;;;17.87;61.05
20156;BME280;10238;49.556;10.956;2023-04-25T11:30:15;97662.47;;;17.72;60.11
20156;BME280;10238;49.556;10.956;2023-04-25T11:33:03;97676.34;;;17.69;59.55
20156;BME280;10238;49.556;10.956;2023-04-25T11:35:53;97669.34;;;17.93;58.91
20156;BME280;10238;49.556;10.956;2023-04-25T11:38:42;97666.00;;;17.97;58.52
20156;BME280;10238;49.556;10.956;2023-04-25T11:41:31;97660.41;;;17.99;58.18
20156;BME280;10238;49.556;10.956;2023-04-25T11:44:20;97660.09;;;17.89;57.70
20156;BME280;10238;49.556;10.956;2023-04-25T11:47:09;97659.44;;;17.93;56.69
20156;BME280;10238;49.556;10.956;2023-04-25T11:49:58;97675.13;;;17.96;56.21
20156;BME280;10238;49.556;10.956;2023-04-25T11:52:48;97668.59;;;17.86;55.54
20156;BME280;10238;49.556;10.956;2023-04-25T11:55:37;97676.88;;;17.84;55.45
20156;BME280;10238;49.556;10.956;2023-04-25T11:58:26;97679.25;;;17.68;55.97
20156;BME280;10238;49.556;10.956;2023-04-25T12:01:26;97689.41;;;17.59;56.66
20156;BME280;10238;49.556;10.956;2023-04-25T12:04:21;97692.78;;;17.48;57.04
20156;BME280;10238;49.556;10.956;2023-04-25T12:07:10;97686.22;;;17.44;57.10
20156;BME280;10238;49.556;10.956;2023-04-25T12:09:58;97691.56;;;17.38;56.74
20156;BME280;10238;49.556;10.956;2023-04-25T12:12:47;97687.63;;;17.40;57.45
20156;BME280;10238;49.556;10.956;2023-04-25T12:15:35;97702.16;;;17.33;57.52
20156;BME280;10238;49.556;10.956;2023-04-25T12:18:28;97694.47;;;17.36;58.29
20156;BME280;10238;49.556;10.956;2023-04-25T12:21:18;97696.78;;;17.33;57.62
20156;BME280;10238;49.556;10.956;2023-04-25T12:24:13;97698.25;;;17.22;57.45
20156;BME280;10238;49.556;10.956;2023-04-25T12:27:03;97699.94;;;17.03;56.77
20156;BME280;10238;49.556;10.956;2023-04-25T12:29:52;97708.47;;;16.94;56.46
20156;BME280;10238;49.556;10.956;2023-04-25T12:32:41;97709.91;;;16.90;57.25
20156;BME280;10238;49.556;10.956;2023-04-25T12:35:28;97714.06;;;16.73;57.86
20156;BME280;10238;49.556;10.956;2023-04-25T12:38:26;97706.25;;;16.65;58.69
20156;BME280;10238;49.556;10.956;2023-04-25T12:41:15;97711.81;;;16.57;58.45
20156;BME280;10238;49.556;10.956;2023-04-25T12:44:03;97716.56;;;16.42;59.23
20156;BME280;10238;49.556;10.956;2023-04-25T12:46:51;97711.19;;;16.42;58.98
20156;BME280;10238;49.556;10.956;2023-04-25T12:49:39;97714.50;;;16.37;59.11
20156;BME280;10238;49.556;10.956;2023-04-25T12:52:27;97713.25;;;16.40;58.85
20156;BME280;10238;49.556;10.956;2023-04-25T12:55:16;97713.25;;;16.46;58.43
20156;BME280;10238;49.556;10.956;2023-04-25T12:58:04;97725.66;;;16.60;58.46
20156;BME280;10238;49.556;10.956;2023-04-25T13:00:51;97725.00;;;16.71;58.53
20156;BME280;10238;49.556;10.956;2023-04-25T13:03:39;97728.31;;;16.80;57.94
20156;BME280;10238;49.556;10.956;2023-04-25T13:06:27;97729.72;;;16.89;57.95
20156;BME280;10238;49.556;10.956;2023-04-25T13:09:16;97725.56;;;16.99;58.98
20156;BME280;10238;49.556;10.956;2023-04-25T13:12:05;97727.63;;;17.10;57.79
20156;BME280;10238;49.556;10.956;2023-04-25T13:14:53;97738.16;;;17.05;56.93
20156;BME280;10238;49.556;10.956;2023-04-25T13:17:42;97737.75;;;17.02;56.69
20156;BME280;10238;49.556;10.956;2023-04-25T13:20:30;97738.41;;;16.91;56.43
20156;BME280;10238;49.556;10.956;2023-04-25T13:23:19;97735.50;;;16.86;57.38
20156;BME280;10238;49.556;10.956;2023-04-25T13:26:07;97731.59;;;16.82;58.05
20156;BME280;10238;49.556;10.956;2023-04-25T13:28:56;97745.66;;;16.71;57.64
20156;BME280;10238;49.556;10.956;2023-04-25T13:31:44;97753.50;;;16.53;57.10
20156;BME280;10238;49.556;10.956;2023-04-25T13:34:32;97757.78;;;16.28;57.20
20156;BME280;10238;49.556;10.956;2023-04-25T13:37:20;97761.91;;;16.17;57.71
20156;BME280;10238;49.556;10.956;2023-04-25T13:40:11;97766.25;;;16.05;57.99
20156;BME280;10238;49.556;10.956;2023-04-25T13:42:59;97767.41;;;15.90;57.97
20156;BME280;10238;49.556;10.956;2023-04-25T13:45:48;97776.66;;;15.81;58.02
20156;BME280;10238;49.556;10.956;2023-04-25T13:48:36;97772.53;;;15.72;58.53
20156;BME280;10238;49.556;10.956;2023-04-25T13:51:24;97782.56;;;15.63;58.99
20156;BME280;10238;49.556;10.956;2023-04-25T13:54:12;97782.56;;;15.63;59.41
20156;BME280;10238;49.556;10.956;2023-04-25T13:57:00;97781.56;;;15.64;59.76
20156;BME280;10238;49.556;10.956;2023-04-25T13:59:48;97782.56;;;15.63;59.82
20156;BME280;10238;49.556;10.956;2023-04-25T14:02:37;97786.50;;;15.61;59.95
20156;BME280;10238;49.556;10.956;2023-04-25T14:05:25;97789.63;;;15.64;60.20
20156;BME280;10238;49.556;10.956;2023-04-25T14:08:13;97793.88;;;15.59;60.07
20156;BME280;10238;49.556;10.956;2023-04-25T14:11:00;97792.19;;;15.45;60.03
20156;BME280;10238;49.556;10.956;2023-04-25T14:13:48;97797.84;;;15.29;60.72
20156;BME280;10238;49.556;10.956;2023-04-25T14:16:36;97799.19;;;15.11;61.03
20156;BME280;10238;49.556;10.956;2023-04-25T14:19:25;97800.13;;;14.97;61.36
20156;BME280;10238;49.556;10.956;2023-04-25T14:22:12;97808.25;;;14.83;62.19
20156;BME280;10238;49.556;10.956;2023-04-25T14:25:00;97803.25;;;14.73;62.89
20156;BME280;10238;49.556;10.956;2023-04-25T14:27:49;97796.75;;;14.61;63.45
20156;BME280;10238;49.556;10.956;2023-04-25T14:30:37;97804.09;;;14.53;63.92
20156;BME280;10238;49.556;10.956;2023-04-25T14:33:24;97812.81;;;14.40;64.50
20156;BME280;10238;49.556;10.956;2023-04-25T14:36:13;97804.75;;;14.34;65.03
20156;BME280;10238;49.556;10.956;2023-04-25T14:39:02;97818.69;;;14.29;65.52
20156;BME280;10238;49.556;10.956;2023-04-25T14:41:51;97814.94;;;14.24;65.69
20156;BME280;10238;49.556;10.956;2023-04-25T14:44:39;97817.13;;;14.20;66.45